Prunedale, CA

6:11 AM PDT on October 20, 2014 (GMT -0700)
Prunedale | Change Station
CLOSE
Current Station
Personal Weather Station
Location: Salinas, CA
Elevation: 236 ft
Nearby Weather Stations
Active Advisory: Beach Hazard Statement

Elev 236 ft 36.81 °N, 121.68 °W | Updated 0 second ago

Overcast
Overcast
60.1 °F
Feels Like 60.1 °F
N
0.0
Wind Variable Wind from ESE
Gusts 0.0 mph

Today
High -- | Low -- °F
--% Chance of Precip.
Yesterday
High -- | Low -- °F
Precip. -- in
7:18 AM 6:23 PM
Waning Crescent, 11% visible
Pressure 29.96 in
Visibility 4.0 miles
Clouds Scattered Clouds 700 ft
Overcast 1500 ft
Dew Point 56 °F
Humidity 86%
Rainfall 0.00 in
Snow Depth Not available.
UV 0.0 out of 12
Pollen 1.80 out of 12
Air Quality Not available.
Flu Activity Sporadic
METAR KSNS 201253Z AUTO 00000KT 4SM BR SCT007 OVC015 17/16 A2993 RMK AO2 RAB13E40 SLP145 P0000 T01670156

More Conditions Fewer Conditions

Pressure 29.96 in
Visibility 4.0 miles
Clouds Scattered Clouds 700 ft
Overcast 1500 ft
Dew Point 56 °F
Humidity 86%
Rainfall 0.00 in
Snow Depth Not available.
UV 0.0 out of 12
Pollen 1.80 out of 12
Air Quality Not available.
Flu Activity Sporadic
METAR KSNS 201253Z AUTO 00000KT 4SM BR SCT007 OVC015 17/16 A2993 RMK AO2 RAB13E40 SLP145 P0000 T01670156

More Conditions Fewer Conditions

10-Day Weather Forecast

Almanac

Astronomy

Oct. 20, 2014 Rise Set
Actual Time 7:18 AM PDT 6:23 PM PDT
Civil Twilight 6:52 AM PDT 6:49 PM PDT
Nautical Twilight 6:22 AM PDT 7:19 PM PDT
Astronomical Twilight 5:52 AM PDT 7:49 PM PDT
Moon 4:16 AM PDT 4:45 PM PDT
Length of Visible Light 11h 57m
Length of Day
11h 04m
Waning Crescent, 11% of the Moon is Illuminated
Today
Waning Crescent
Oct 23
New
Oct 30
First Quarter
Nov 6
Full
Nov 14
Last Quarter

Today's Extremes

State Highs State Lows

Community

WunderPhotos

Upload Photos

1,763,372 photos uploaded!

Nearby

Snow Depth

Station Depth Elevation
Leavitt Lake 1 in 9400 ft
Sonora Pass 0 in 8800 ft
Leavitt Meadows 1 in 7200 ft
Blue Lakes 0 in 8000 ft
Ebbetts Pass 0 in 8700 ft

Earthquake Activity

City Distance Mag. Time & Date
Soledad, California 33 miles 2.6 3:21 PM PDT
2014-10-18
East Foothills, California 42 miles 2.6 8:16 AM PDT
2014-10-18
Minimum magnitude displayed is 2.5.

Coastal Water Temperatures

Place Temperature
Monterey, CA 63.0 °F
Redwood City, CA 68.0 °F

Nearby Weather Stations